Attica, IN

5:37 PM EST on November 24, 2014 (GMT -0500)
Warren County, IN | Change Station
CLOSE
Current Station
Personal Weather Station
Location: Attica, IN
Elevation: 615 ft
Nearby Weather Stations
Active Advisory: Flood Warning Active Notice: Record Report, Public Information Statement

Elev 615 ft 40.35 °N, 87.21 °W | Updated 1 minute ago

Overcast
Overcast
34.5 °F
Feels Like 27 °F
N
9.0
Wind Variable Wind from WSW
Gusts 10.0 mph

Today
High -- | Low -- °F
--% Chance of Precip.
Yesterday
High -- | Low -- °F
Precip. -- in
7:45 AM 5:26 PM
Waxing Crescent, 7% visible
Pressure 29.70 in
Visibility 10.0 miles
Clouds Few 2600 ft
Mostly Cloudy 3400 ft
Overcast 4200 ft
Windchill 27 °F
Dew Point 29 °F
Humidity 79%
Rainfall 0.14 in
Snow Depth Not available.
UV 0 out of 12
Pollen .10 out of 12
Air Quality Not available.
Flu Activity Not available.
SPECI KLAF 242216Z 25023G36KT 10SM FEW026 BKN034 OVC042 01/M04 A2970 RMK AO2 PK WND 26036/2214 T00061039

More Conditions Fewer Conditions

Pressure 29.70 in
Visibility 10.0 miles
Clouds Few 2600 ft
Mostly Cloudy 3400 ft
Overcast 4200 ft
Windchill 27 °F
Dew Point 29 °F
Humidity 79%
Rainfall 0.14 in
Snow Depth Not available.
UV 0 out of 12
Pollen .10 out of 12
Air Quality Not available.
Flu Activity Not available.
SPECI KLAF 242216Z 25023G36KT 10SM FEW026 BKN034 OVC042 01/M04 A2970 RMK AO2 PK WND 26036/2214 T00061039

More Conditions Fewer Conditions

10-Day Weather Forecast

Almanac

Astronomy

Nov. 24, 2014 Rise Set
Actual Time
Civil Twilight
Nautical Twilight
Astronomical Twilight
Moon
Length of Visible Light
Length of Day
Tomorrow will be .
, % of the Moon is Illuminated

Today's Extremes

State Highs State Lows

Community

WunderPhotos

Upload Photos

1,773,427 photos uploaded!

WunderBlogs® & News

Nearby

Air Quality

  Air Quality AQ Index Pollutant
Not available.

Snow Depth

Station Depth Elevation

Earthquake Activity

City Distance Mag. Time & Date
Minimum magnitude displayed is 2.5.

Coastal Water Temperatures

Place Temperature

Nearby Weather Stations